createdAt,value
2022-07-27T00:01:04.703Z,96.60
2022-07-27T00:03:32.633Z,96.56
2022-07-27T00:06:00.794Z,95.62
2022-07-27T00:08:28.103Z,95.70
2022-07-27T00:10:55.636Z,95.60
2022-07-27T00:13:23.039Z,96.93
2022-07-27T00:15:51.534Z,96.46
2022-07-27T00:18:19.616Z,95.04
2022-07-27T00:20:49.662Z,94.63
2022-07-27T00:23:17.020Z,94.48
2022-07-27T00:25:44.435Z,95.56
2022-07-27T00:28:11.735Z,96.36
2022-07-27T00:30:39.050Z,96.31
2022-07-27T00:33:06.780Z,95.63
2022-07-27T00:35:34.257Z,95.18
2022-07-27T00:38:03.315Z,95.59
2022-07-27T00:40:31.726Z,95.34
2022-07-27T00:42:59.013Z,95.61
2022-07-27T00:45:26.370Z,96.17
2022-07-27T00:47:55.379Z,96.48
2022-07-27T00:50:23.475Z,95.87
2022-07-27T00:52:51.399Z,95.28
2022-07-27T00:55:24.052Z,95.49
2022-07-27T00:57:53.206Z,95.61
2022-07-27T01:00:29.419Z,96.12
2022-07-27T01:02:57.602Z,96.13
2022-07-27T01:05:26.570Z,95.72
2022-07-27T01:08:05.763Z,95.27
2022-07-27T01:10:33.065Z,95.39
2022-07-27T01:13:00.509Z,95.82
2022-07-27T01:15:27.952Z,95.64
2022-07-27T01:17:55.888Z,95.15
2022-07-27T01:20:23.228Z,96.02
2022-07-27T01:22:50.956Z,97.06
2022-07-27T01:25:18.211Z,97.07
2022-07-27T01:27:45.577Z,96.33
2022-07-27T01:30:30.309Z,95.79
2022-07-27T01:33:04.676Z,95.42
2022-07-27T01:35:32.015Z,95.46
2022-07-27T01:38:03.168Z,95.26
2022-07-27T01:40:30.920Z,95.14
2022-07-27T01:42:58.250Z,95.35
2022-07-27T01:45:25.755Z,95.99
2022-07-27T01:47:53.084Z,96.06
2022-07-27T01:50:20.399Z,96.01
2022-07-27T01:52:48.726Z,96.30
2022-07-27T01:55:16.063Z,96.39
2022-07-27T01:57:43.388Z,96.85
2022-07-27T02:00:12.503Z,97.44
2022-07-27T02:02:40.553Z,97.02
2022-07-27T02:05:08.744Z,96.81
2022-07-27T02:07:39.904Z,96.16
2022-07-27T02:10:07.501Z,96.24
2022-07-27T02:12:35.654Z,96.60
2022-07-27T02:15:15.059Z,96.24
2022-07-27T02:17:43.800Z,96.15
2022-07-27T02:20:14.808Z,96.61
2022-07-27T02:22:42.590Z,96.22
2022-07-27T02:25:10.277Z,95.88
2022-07-27T02:27:40.015Z,95.72
2022-07-27T02:30:07.962Z,95.68
2022-07-27T02:32:37.396Z,96.01
2022-07-27T02:35:18.516Z,95.82
2022-07-27T02:37:48.751Z,95.85
2022-07-27T02:40:18.717Z,96.00
2022-07-27T02:42:46.290Z,96.30
2022-07-27T02:45:16.575Z,96.44
2022-07-27T02:47:46.058Z,96.73
2022-07-27T02:50:13.664Z,96.96
2022-07-27T02:52:40.928Z,96.37
2022-07-27T02:55:08.922Z,96.45
2022-07-27T02:57:38.007Z,96.35
2022-07-27T03:00:15.031Z,96.08
2022-07-27T03:02:42.794Z,96.26
2022-07-27T03:05:10.532Z,95.88
2022-07-27T03:07:40.780Z,95.82
2022-07-27T03:10:08.403Z,95.84
2022-07-27T03:12:37.841Z,95.70
2022-07-27T03:15:05.542Z,95.61
2022-07-27T03:17:33.742Z,96.29
2022-07-27T03:20:01.031Z,95.99
2022-07-27T03:22:32.704Z,95.88
2022-07-27T03:25:00.401Z,96.30
2022-07-27T03:27:28.324Z,96.28
2022-07-27T03:29:56.759Z,95.43
2022-07-27T03:32:24.047Z,95.42
2022-07-27T03:34:51.360Z,95.52
2022-07-27T03:37:20.009Z,96.37
2022-07-27T03:39:47.598Z,96.24
2022-07-27T03:42:14.953Z,95.86
2022-07-27T03:44:43.446Z,96.75
2022-07-27T03:47:10.750Z,97.42
2022-07-27T03:49:38.061Z,97.56
2022-07-27T03:52:05.779Z,97.29
2022-07-27T03:54:33.235Z,97.27
2022-07-27T03:57:01.743Z,97.06
2022-07-27T03:59:29.321Z,97.03
2022-07-27T04:01:56.712Z,96.73
2022-07-27T04:04:24.243Z,96.93
2022-07-27T04:06:52.350Z,96.93
2022-07-27T04:09:21.546Z,96.47
2022-07-27T04:11:50.907Z,96.04
2022-07-27T04:14:18.908Z,95.41
2022-07-27T04:16:47.133Z,94.60
2022-07-27T04:19:14.911Z,94.50
2022-07-27T04:21:42.911Z,94.03
2022-07-27T04:24:10.269Z,94.08
2022-07-27T04:26:37.546Z,94.07
2022-07-27T04:29:04.838Z,94.08
2022-07-27T04:31:32.192Z,94.15
2022-07-27T04:33:59.511Z,93.45
2022-07-27T04:36:26.854Z,92.50
2022-07-27T04:38:54.105Z,90.81
2022-07-27T04:41:21.768Z,89.73
2022-07-27T04:43:49.012Z,89.77
2022-07-27T04:46:16.562Z,89.00
2022-07-27T04:48:49.510Z,89.85
2022-07-27T04:51:17.777Z,89.05
2022-07-27T04:53:54.015Z,88.97
2022-07-27T04:56:26.921Z,88.77
2022-07-27T04:58:55.122Z,88.55
2022-07-27T05:01:27.363Z,88.23
2022-07-27T05:03:56.727Z,88.21
2022-07-27T05:06:24.083Z,87.92
2022-07-27T05:08:51.369Z,87.39
2022-07-27T05:11:18.714Z,87.97
2022-07-27T05:13:45.979Z,87.25
2022-07-27T05:16:13.885Z,86.37
2022-07-27T05:18:41.754Z,84.98
2022-07-27T05:21:09.961Z,84.55
2022-07-27T05:23:37.287Z,84.12
2022-07-27T05:26:04.757Z,82.77
2022-07-27T05:28:32.393Z,81.73
2022-07-27T05:31:00.106Z,79.56
2022-07-27T05:33:27.422Z,80.51
2022-07-27T05:35:58.599Z,80.23
2022-07-27T05:38:26.222Z,79.34
2022-07-27T05:40:53.570Z,78.69
2022-07-27T05:43:21.159Z,78.28
2022-07-27T05:45:48.517Z,76.97
2022-07-27T05:48:16.811Z,76.36
2022-07-27T05:50:44.132Z,76.84
2022-07-27T05:53:11.497Z,76.78
2022-07-27T05:55:38.782Z,74.97
2022-07-27T05:58:06.501Z,74.44
2022-07-27T06:00:33.888Z,74.35
2022-07-27T06:03:01.269Z,74.79
2022-07-27T06:05:28.685Z,75.00
2022-07-27T06:07:58.870Z,75.01
2022-07-27T06:10:29.922Z,72.09
2022-07-27T06:13:00.144Z,73.52
2022-07-27T06:15:27.618Z,72.11
2022-07-27T06:17:56.217Z,73.10
2022-07-27T06:20:24.646Z,72.81
2022-07-27T06:22:54.216Z,72.10
2022-07-27T06:25:21.884Z,71.55
2022-07-27T06:27:51.848Z,71.59
2022-07-27T06:30:20.175Z,72.54
2022-07-27T06:32:48.274Z,70.86
2022-07-27T06:35:16.183Z,71.59
2022-07-27T06:37:48.438Z,69.01
2022-07-27T06:40:16.790Z,69.35
2022-07-27T06:42:44.542Z,67.66
2022-07-27T06:45:11.847Z,68.91
2022-07-27T06:47:49.795Z,68.05
2022-07-27T06:50:18.510Z,67.75
2022-07-27T06:52:46.504Z,67.53
2022-07-27T06:55:13.932Z,67.46
2022-07-27T06:57:43.084Z,67.25
2022-07-27T07:00:12.209Z,67.42
2022-07-27T07:02:54.873Z,67.84
2022-07-27T07:05:23.324Z,67.56
2022-07-27T07:07:50.726Z,67.34
2022-07-27T07:10:18.259Z,66.19
2022-07-27T07:12:46.385Z,64.38
2022-07-27T07:15:13.710Z,64.31
2022-07-27T07:17:41.287Z,63.79
2022-07-27T07:20:09.441Z,65.22
2022-07-27T07:22:36.795Z,65.61
2022-07-27T07:25:04.254Z,64.60
2022-07-27T07:27:32.749Z,61.99
2022-07-27T07:30:00.222Z,61.33
2022-07-27T07:32:33.610Z,62.62
2022-07-27T07:35:03.638Z,62.82
2022-07-27T07:37:33.994Z,63.21
2022-07-27T07:40:24.823Z,59.95
2022-07-27T07:42:53.910Z,62.71
2022-07-27T07:45:24.550Z,60.15
2022-07-27T07:47:52.020Z,59.04
2022-07-27T07:50:22.183Z,59.00
2022-07-27T07:52:51.284Z,57.79
2022-07-27T07:55:25.958Z,57.92
2022-07-27T07:57:53.570Z,59.29
2022-07-27T08:00:21.233Z,58.77
2022-07-27T08:02:50.740Z,55.38
2022-07-27T08:05:22.034Z,53.68
2022-07-27T08:07:49.673Z,52.34
2022-07-27T08:10:17.890Z,50.08
2022-07-27T08:12:46.565Z,52.42
2022-07-27T08:15:14.814Z,52.60
2022-07-27T08:17:43.324Z,53.25
2022-07-27T08:20:13.054Z,53.47
2022-07-27T08:22:40.554Z,51.43
2022-07-27T08:25:08.302Z,50.68
2022-07-27T08:27:40.218Z,49.86
2022-07-27T08:30:09.433Z,50.84
2022-07-27T08:33:06.771Z,48.65
2022-07-27T08:35:34.429Z,48.27
2022-07-27T08:38:03.024Z,47.09
2022-07-27T08:40:46.800Z,47.97
2022-07-27T08:43:23.795Z,48.36
2022-07-27T08:45:56.576Z,46.45
2022-07-27T08:48:29.422Z,44.52
2022-07-27T08:50:56.792Z,45.04
2022-07-27T08:53:24.381Z,49.70
2022-07-27T08:55:51.776Z,46.73
2022-07-27T08:58:19.183Z,45.56
2022-07-27T09:00:48.461Z,44.52
2022-07-27T09:03:19.435Z,43.93
2022-07-27T09:05:53.242Z,45.81
2022-07-27T09:08:25.347Z,41.90
2022-07-27T09:10:54.679Z,41.59
2022-07-27T09:13:32.087Z,46.02
2022-07-27T09:16:21.220Z,45.58
2022-07-27T09:19:01.456Z,41.93
2022-07-27T09:21:32.745Z,41.00
2022-07-27T09:24:23.237Z,41.18
2022-07-27T09:27:02.758Z,42.65
2022-07-27T09:29:34.512Z,41.01
2022-07-27T09:32:01.825Z,39.62
2022-07-27T09:34:31.022Z,41.24
2022-07-27T09:36:58.828Z,40.40
2022-07-27T09:39:27.191Z,36.19
2022-07-27T09:42:00.071Z,38.80
2022-07-27T09:44:43.151Z,40.00
2022-07-27T09:47:23.160Z,40.08
2022-07-27T09:49:50.613Z,35.37
2022-07-27T09:52:28.336Z,33.13
2022-07-27T09:55:01.880Z,31.29
2022-07-27T09:57:29.273Z,29.80
2022-07-27T10:00:10.491Z,28.44
2022-07-27T10:02:38.936Z,27.41
2022-07-27T10:05:07.655Z,28.55
2022-07-27T10:07:35.940Z,26.17
2022-07-27T10:10:05.599Z,24.99
2022-07-27T10:12:32.984Z,26.56
2022-07-27T10:15:00.299Z,25.71
2022-07-27T10:17:29.253Z,26.05
2022-07-27T10:19:59.545Z,24.88
2022-07-27T10:22:49.249Z,24.65
2022-07-27T10:25:16.607Z,24.40
2022-07-27T10:27:47.300Z,24.99
2022-07-27T10:30:17.231Z,24.76
2022-07-27T10:32:51.560Z,25.23
2022-07-27T10:35:34.653Z,23.61
2022-07-27T10:38:11.979Z,23.60
2022-07-27T10:40:39.432Z,22.93
2022-07-27T10:43:18.349Z,23.93
2022-07-27T10:45:50.322Z,23.32
2022-07-27T10:48:45.886Z,24.81
2022-07-27T10:51:21.336Z,24.26
2022-07-27T10:54:11.426Z,23.75
2022-07-27T10:56:49.577Z,23.82
2022-07-27T11:00:12.376Z,23.36
2022-07-27T11:02:41.632Z,23.03
2022-07-27T11:05:42.629Z,23.41
2022-07-27T11:10:48.248Z,23.47
2022-07-27T11:13:18.343Z,24.80
2022-07-27T11:16:28.501Z,22.60
2022-07-27T11:19:04.238Z,24.16
2022-07-27T11:21:36.615Z,23.95
2022-07-27T11:24:16.848Z,23.35
2022-07-27T11:26:49.524Z,22.98
2022-07-27T11:29:18.378Z,22.97
2022-07-27T11:31:56.057Z,22.74
2022-07-27T11:34:35.545Z,22.10
2022-07-27T11:37:04.387Z,23.50
2022-07-27T11:42:23.577Z,21.94
2022-07-27T11:44:53.515Z,22.60
2022-07-27T11:47:24.211Z,22.81
2022-07-27T11:49:52.625Z,22.18
2022-07-27T11:52:20.316Z,21.56
2022-07-27T11:54:51.314Z,21.85
2022-07-27T11:57:20.948Z,22.56
2022-07-27T11:59:48.528Z,22.33
2022-07-27T12:02:20.439Z,22.52
2022-07-27T12:04:52.690Z,21.87
2022-07-27T12:07:22.141Z,22.12
2022-07-27T12:09:53.439Z,22.54
2022-07-27T12:12:26.920Z,22.79
2022-07-27T12:14:59.322Z,21.48
2022-07-27T12:17:32.639Z,22.49
2022-07-27T12:20:16.700Z,22.82
2022-07-27T12:22:50.804Z,22.64
2022-07-27T12:25:18.071Z,23.01
2022-07-27T12:28:01.608Z,23.50
2022-07-27T12:30:35.514Z,24.28
2022-07-27T12:33:04.018Z,23.88
2022-07-27T12:35:37.403Z,23.18
2022-07-27T12:38:08.146Z,23.14
2022-07-27T12:40:49.749Z,22.41
2022-07-27T12:43:18.573Z,24.31
2022-07-27T12:45:46.599Z,25.47
2022-07-27T12:48:16.547Z,27.52
2022-07-27T12:50:45.513Z,28.15
2022-07-27T12:53:15.268Z,30.09
2022-07-27T12:55:43.917Z,32.14
2022-07-27T12:58:14.026Z,32.40
2022-07-27T13:00:42.016Z,30.55
2022-07-27T13:03:09.511Z,34.09
2022-07-27T13:05:36.810Z,34.51
2022-07-27T13:08:04.904Z,32.44
2022-07-27T13:10:34.021Z,30.23
2022-07-27T13:13:08.092Z,28.58
2022-07-27T13:15:35.785Z,25.76
2022-07-27T13:18:04.245Z,25.48
2022-07-27T13:20:31.719Z,24.30
2022-07-27T13:22:59.022Z,26.87
2022-07-27T13:25:28.932Z,28.82
2022-07-27T13:27:56.654Z,27.05
2022-07-27T13:30:25.100Z,27.90
2022-07-27T13:32:52.517Z,29.03
2022-07-27T13:35:19.862Z,31.66
2022-07-27T13:37:47.277Z,29.63
2022-07-27T13:40:15.013Z,26.41
2022-07-27T13:42:44.289Z,26.96
2022-07-27T13:45:14.929Z,25.97
2022-07-27T13:47:42.606Z,24.38
2022-07-27T13:50:17.767Z,24.91
2022-07-27T13:52:49.646Z,23.81
2022-07-27T13:55:17.226Z,24.09
2022-07-27T13:57:44.849Z,24.33
2022-07-27T14:00:12.737Z,23.39
2022-07-27T14:02:42.614Z,23.67
2022-07-27T14:05:13.157Z,23.45
2022-07-27T14:07:42.917Z,23.06
2022-07-27T14:10:30.627Z,22.72
2022-07-27T14:13:08.158Z,22.89
2022-07-27T14:15:50.457Z,24.69
2022-07-27T14:18:29.629Z,23.25
2022-07-27T14:21:01.557Z,22.95
2022-07-27T14:23:29.493Z,23.82
2022-07-27T14:25:57.362Z,22.93
2022-07-27T14:28:25.737Z,22.56
2022-07-27T14:30:53.705Z,21.70
2022-07-27T14:33:24.111Z,22.22
2022-07-27T14:35:52.874Z,24.36
2022-07-27T14:38:27.167Z,23.51
2022-07-27T14:40:59.091Z,23.32
2022-07-27T14:43:27.369Z,22.85
2022-07-27T14:45:54.729Z,23.10
2022-07-27T14:48:32.467Z,22.75
2022-07-27T14:51:10.106Z,22.74
2022-07-27T14:53:37.511Z,22.54
2022-07-27T14:56:05.079Z,23.33
2022-07-27T14:58:32.896Z,23.16
2022-07-27T15:01:00.253Z,23.41
2022-07-27T15:03:27.726Z,23.37
2022-07-27T15:05:58.249Z,23.01
2022-07-27T15:08:25.565Z,22.65
2022-07-27T15:10:57.685Z,23.24
2022-07-27T15:13:25.662Z,22.93
2022-07-27T15:15:58.098Z,24.62
2022-07-27T15:18:26.609Z,24.09
2022-07-27T15:20:54.022Z,24.88
2022-07-27T15:23:22.497Z,24.65
2022-07-27T15:25:50.051Z,26.03
2022-07-27T15:28:17.423Z,26.90
2022-07-27T15:30:44.785Z,26.29
2022-07-27T15:33:12.130Z,25.03
2022-07-27T15:36:03.752Z,26.77
2022-07-27T15:38:31.252Z,27.27
2022-07-27T15:40:58.825Z,27.87
2022-07-27T15:43:26.090Z,27.53
2022-07-27T15:45:53.447Z,29.33
2022-07-27T15:48:21.780Z,30.78
2022-07-27T15:50:50.577Z,30.01
2022-07-27T15:53:18.764Z,31.87
2022-07-27T15:55:46.342Z,31.70
2022-07-27T15:58:17.812Z,32.67
2022-07-27T16:00:53.243Z,33.19
2022-07-27T16:03:24.355Z,33.24
2022-07-27T16:05:53.446Z,34.22
2022-07-27T16:08:21.193Z,33.31
2022-07-27T16:10:48.907Z,32.95
2022-07-27T16:13:16.340Z,33.31
2022-07-27T16:16:04.921Z,35.27
2022-07-27T16:18:38.345Z,35.33
2022-07-27T16:21:07.215Z,37.03
2022-07-27T16:23:36.222Z,38.96
2022-07-27T16:26:05.965Z,39.66
2022-07-27T16:28:39.228Z,43.10
2022-07-27T16:31:07.932Z,42.38
2022-07-27T16:33:35.457Z,43.97
2022-07-27T16:36:02.942Z,44.82
2022-07-27T16:38:30.515Z,45.68
2022-07-27T16:40:57.785Z,47.06
2022-07-27T16:43:37.247Z,48.97
2022-07-27T16:46:07.954Z,49.23
2022-07-27T16:48:41.882Z,50.19
2022-07-27T16:51:14.831Z,51.80
2022-07-27T16:53:44.120Z,52.64
2022-07-27T16:56:13.042Z,55.12
2022-07-27T16:58:41.539Z,54.26
2022-07-27T17:01:09.072Z,55.45
2022-07-27T17:03:37.615Z,56.52
2022-07-27T17:06:06.830Z,55.71
2022-07-27T17:08:35.957Z,56.53
2022-07-27T17:11:05.387Z,55.87
2022-07-27T17:13:34.692Z,56.96
2022-07-27T17:16:03.618Z,58.00
2022-07-27T17:18:35.712Z,58.42
2022-07-27T17:21:12.505Z,58.89
2022-07-27T17:23:41.564Z,58.69
2022-07-27T17:26:09.479Z,59.79
2022-07-27T17:28:39.163Z,60.78
2022-07-27T17:31:09.688Z,61.75
2022-07-27T17:33:38.246Z,61.77
2022-07-27T17:36:09.577Z,61.68
2022-07-27T17:38:45.632Z,62.28
2022-07-27T17:41:13.525Z,63.49
2022-07-27T17:43:43.275Z,63.89
2022-07-27T17:46:11.145Z,63.94
2022-07-27T17:48:39.129Z,64.72
2022-07-27T17:51:07.141Z,65.17
2022-07-27T17:53:35.039Z,64.56
2022-07-27T17:56:02.914Z,65.32
2022-07-27T17:58:30.770Z,65.69
2022-07-27T18:00:58.933Z,65.43
2022-07-27T18:03:26.775Z,65.89
2022-07-27T18:05:54.173Z,65.48
2022-07-27T18:08:21.857Z,66.28
2022-07-27T18:10:51.474Z,66.80
2022-07-27T18:13:18.854Z,66.35
2022-07-27T18:15:48.957Z,66.92
2022-07-27T18:18:19.806Z,66.51
2022-07-27T18:20:48.371Z,67.04
2022-07-27T18:23:16.086Z,68.00
2022-07-27T18:25:45.055Z,68.16
2022-07-27T18:28:14.120Z,68.52
2022-07-27T18:30:46.113Z,68.39
2022-07-27T18:33:16.821Z,68.09
2022-07-27T18:35:44.390Z,68.29
2022-07-27T18:38:12.467Z,68.55
2022-07-27T18:40:41.342Z,69.09
2022-07-27T18:43:08.918Z,68.74
2022-07-27T18:45:38.505Z,69.48
2022-07-27T18:48:06.374Z,69.87
2022-07-27T18:50:38.927Z,69.65
2022-07-27T18:53:07.082Z,70.29
2022-07-27T18:55:34.778Z,70.65
2022-07-27T18:58:02.177Z,70.41
2022-07-27T19:00:29.683Z,70.40
2022-07-27T19:02:58.132Z,71.07
2022-07-27T19:05:32.719Z,70.97
2022-07-27T19:08:13.243Z,71.44
2022-07-27T19:10:43.022Z,71.70
2022-07-27T19:13:14.212Z,71.11
2022-07-27T19:15:41.723Z,71.87
2022-07-27T19:18:25.167Z,70.72
2022-07-27T19:20:52.746Z,71.02
2022-07-27T19:23:21.484Z,71.86
2022-07-27T19:25:48.822Z,72.26
2022-07-27T19:28:17.150Z,71.70
2022-07-27T19:30:44.526Z,72.18
2022-07-27T19:33:12.372Z,72.31
2022-07-27T19:35:40.192Z,72.10
2022-07-27T19:38:08.535Z,72.25
2022-07-27T19:40:45.701Z,72.38
2022-07-27T19:43:13.890Z,72.45
2022-07-27T19:45:41.602Z,72.23
2022-07-27T19:48:08.975Z,72.93
2022-07-27T19:50:36.434Z,73.35
2022-07-27T19:53:06.921Z,72.79
2022-07-27T19:55:34.781Z,73.28
2022-07-27T19:58:02.080Z,73.15
2022-07-27T20:00:30.136Z,73.38
2022-07-27T20:02:57.681Z,73.46
2022-07-27T20:05:25.035Z,73.41
2022-07-27T20:07:52.976Z,73.69
2022-07-27T20:10:21.859Z,74.21
2022-07-27T20:12:49.610Z,74.13
2022-07-27T20:15:18.476Z,74.39
2022-07-27T20:17:45.729Z,73.91
2022-07-27T20:20:14.305Z,74.09
2022-07-27T20:22:41.618Z,74.72
2022-07-27T20:25:34.927Z,74.64
2022-07-27T20:28:03.363Z,74.18
2022-07-27T20:30:31.133Z,74.60
2022-07-27T20:32:58.753Z,75.09
2022-07-27T20:35:37.398Z,74.90
2022-07-27T20:38:05.314Z,75.35
2022-07-27T20:40:33.040Z,75.66
2022-07-27T20:43:00.457Z,75.56
2022-07-27T20:45:27.970Z,75.36
2022-07-27T20:47:55.824Z,75.60
2022-07-27T20:50:24.373Z,75.35
2022-07-27T20:52:54.461Z,75.11
2022-07-27T20:55:21.829Z,75.07
2022-07-27T20:57:49.415Z,75.03
2022-07-27T21:00:17.248Z,75.49
2022-07-27T21:02:44.674Z,75.51
2022-07-27T21:05:14.406Z,75.48
2022-07-27T21:07:41.836Z,75.77
2022-07-27T21:10:10.068Z,75.56
2022-07-27T21:12:37.411Z,75.62
2022-07-27T21:15:08.548Z,75.94
2022-07-27T21:17:40.173Z,75.92
2022-07-27T21:20:07.843Z,76.16
2022-07-27T21:22:35.760Z,76.16
2022-07-27T21:25:03.669Z,76.02
2022-07-27T21:27:31.511Z,76.13
2022-07-27T21:29:59.244Z,76.04
2022-07-27T21:32:26.664Z,76.48
2022-07-27T21:34:54.607Z,76.56
2022-07-27T21:37:22.018Z,76.09
2022-07-27T21:39:49.725Z,76.60
2022-07-27T21:42:19.954Z,77.08
2022-07-27T21:44:47.295Z,77.38
2022-07-27T21:47:14.842Z,77.39
2022-07-27T21:49:43.105Z,77.22
2022-07-27T21:52:11.355Z,76.83
2022-07-27T21:54:38.974Z,76.88
2022-07-27T21:57:07.125Z,77.37
2022-07-27T21:59:34.880Z,77.37
2022-07-27T22:02:02.208Z,77.67
2022-07-27T22:04:29.866Z,77.45
2022-07-27T22:06:57.397Z,77.43
2022-07-27T22:09:25.168Z,77.91
2022-07-27T22:11:52.481Z,77.85
2022-07-27T22:14:23.580Z,78.05
2022-07-27T22:16:52.946Z,78.41
2022-07-27T22:19:20.591Z,79.07
2022-07-27T22:21:47.962Z,78.83
2022-07-27T22:24:16.438Z,79.10
2022-07-27T22:26:44.349Z,79.38
2022-07-27T22:29:12.283Z,79.51
2022-07-27T22:31:39.968Z,79.41
2022-07-27T22:34:07.382Z,79.64
2022-07-27T22:36:34.682Z,79.78
2022-07-27T22:39:02.074Z,79.70
2022-07-27T22:41:29.551Z,79.66
2022-07-27T22:43:57.413Z,79.62
2022-07-27T22:46:25.879Z,79.49
2022-07-27T22:48:53.409Z,79.99
2022-07-27T22:51:20.863Z,80.15
2022-07-27T22:53:49.203Z,80.35
2022-07-27T22:56:16.581Z,80.17
2022-07-27T22:58:44.124Z,80.27
2022-07-27T23:01:28.400Z,81.19
2022-07-27T23:03:58.770Z,85.06
2022-07-27T23:06:26.706Z,87.03
2022-07-27T23:08:53.979Z,88.11
2022-07-27T23:11:22.832Z,88.05
2022-07-27T23:13:52.696Z,86.92
2022-07-27T23:16:19.985Z,87.89
2022-07-27T23:18:47.289Z,88.73
2022-07-27T23:21:15.198Z,87.88
2022-07-27T23:23:53.695Z,87.69
2022-07-27T23:26:22.998Z,88.42
2022-07-27T23:28:53.670Z,87.66
2022-07-27T23:31:21.798Z,88.38
2022-07-27T23:33:49.649Z,87.19
2022-07-27T23:36:16.983Z,87.74
2022-07-27T23:38:44.308Z,88.48
2022-07-27T23:41:11.672Z,88.44
2022-07-27T23:43:39.145Z,89.09
2022-07-27T23:46:11.377Z,88.73
2022-07-27T23:48:39.778Z,88.25
2022-07-27T23:51:08.967Z,88.33
2022-07-27T23:53:36.848Z,88.71
2022-07-27T23:56:04.590Z,88.47
2022-07-27T23:58:32.231Z,88.34
